x

Big Bay, Mi (bigm4) Weather Station

4:40am - Mon 25th May 2015 All times are CDT. -5 hours from GMT.

  • Wind
  • Air Temp 53°f
  • Sea Pressure 1010.5mb
  • Big Bay, Mi
  • Big Bay, Mi

More Historic Weather Station data

Upgrade to MSW Pro to gain access to the past 30 days of data for over 8000 Wavebouys and Weather Stations around the globe.

Join Pro

Comparision Forecast

View Surf forecast
   
Mon 05/25 4:40am  -  2 mph 1010.5mb 53f
4:30am 2 3 mph 1010.8mb 53f
4:20am 2 3 mph 1010.8mb 53f
4:10am 2 3 mph 1011.2mb 52f
4:00am  -  1 mph 1010.8mb 52f
3:40am  -  2 mph 1011.2mb 52f
3:30am  -  1 mph 1011.2mb 54f
3:20am  -  1 mph 1011.2mb 53f
3:10am  -  mph 1011.5mb 53f
3:00am  -  mph 1011.9mb 53f
2:40am  -  mph 1011.9mb 53f
2:30am  -  mph 1011.9mb 53f
2:20am  -  mph 1011.9mb 53f
2:10am  -  mph 1012.2mb 53f
2:00am  -  mph 1012.2mb 53f
1:40am  -  1 mph 1012.2mb 52f
1:30am  -  2 mph 1012.2mb 53f
1:20am  -  mph 1012.5mb 55f
1:10am  -  1 mph 1012.5mb 55f
1:00am  -  2 mph 1012.5mb 55f
12:40am  -  mph 1012.5mb 53f
12:30am  -  mph 1012.9mb 53f
12:20am  -  1 mph 1012.9mb 54f
12:10am  -  2 mph 1012.9mb 53f
12:00am  -  mph 1013.2mb 52f
Sun 05/24 11:40pm  -  mph 1013.2mb 52f
11:30pm  -  1 mph 1013.2mb 52f
11:20pm  -  mph 1013.5mb 51f
11:10pm  -  1 mph 1013.5mb 51f
11:00pm  -  1 mph 1013.5mb 49f
10:40pm  -  2 mph 1013.5mb 48f
10:30pm 2 6 mph 1013.5mb 48f
10:20pm 3 7 mph 1013.5mb 48f
10:10pm 3 6 mph 1013.5mb 49f
10:00pm 3 5 mph 1013.9mb 50f
9:40pm 3
mph
1013.5mb 51f
9:30pm 2 3 mph 1013.5mb 50f
9:20pm 2 5 mph 1013.5mb 51f
9:10pm 5 6 mph 1013.5mb 51f
9:00pm 3 5 mph 1013.5mb 54f
8:40pm 5 6 mph 1013.5mb 55f
8:30pm 3
mph
1013.5mb 58f
8:20pm 1 3 mph 1013.5mb 59f
8:10pm 3 6 mph 1013.5mb 57f
8:00pm 5
mph
1013.5mb 58f
7:40pm 2 6 mph 1013.9mb 65f
7:30pm 3 7 mph 1013.9mb 66f
7:20pm 3 6 mph 1013.9mb 67f
7:10pm 3 7 mph 1013.9mb 68f
7:00pm 3 6 mph 1014.2mb 69f
6:40pm 5 7 mph 1014.2mb 69f
6:30pm 5 6 mph 1013.9mb 69f
6:20pm 2 5 mph 1013.9mb 65f
6:10pm  -  3 mph 1014.2mb 63f
6:00pm 1 2 mph 1014.2mb 63f
5:40pm  -  3 mph 1014.2mb 67f
5:30pm  -  2 mph 1014.2mb 68f
5:20pm  -  2 mph 1014.6mb 65f
5:10pm 2 3 mph 1014.6mb 64f
5:00pm 2
mph
1014.9mb 65f
4:40pm 1
mph
1014.9mb 66f
4:30pm  -  1 mph 1014.9mb 67f
4:20pm  -  1 mph 1015.2mb 67f
4:10pm  -  2 mph 1015.2mb 67f
4:00pm 2
mph
1015.2mb 68f
3:40pm 3
mph
1015.6mb 65f
3:30pm 2 3 mph 1015.6mb 66f
3:20pm 2 3 mph 1015.6mb 65f
3:10pm 3 5 mph 1015.6mb 62f
3:00pm 5 6 mph 1015.9mb 62f
2:40pm 3 6 mph 1015.9mb 62f
2:30pm 5 6 mph 1015.9mb 61f
2:20pm 2 5 mph 1015.9mb 64f
2:10pm 3 5 mph 1016.3mb 66f
2:00pm 5 6 mph 1016.3mb 63f
1:40pm 3 5 mph 1016.6mb 71f
1:30pm 2
mph
1016.6mb 69f
1:20pm  -  3 mph 1016.9mb 67f
1:10pm 2 3 mph 1016.9mb 63f
1:00pm 3
mph
1017.3mb 65f
12:40pm 2 5 mph 1017.6mb 63f
12:30pm 3 5 mph 1017.6mb 62f
12:20pm 3 5 mph 1017.6mb 62f
12:10pm 2 5 mph 1017.6mb 60f
12:00pm 2 6 mph 1017.6mb 61f
11:40am  -  5 mph 1017.9mb 61f
11:30am 1 3 mph 1017.9mb 61f
11:20am 2 3 mph 1017.9mb 62f
11:10am  -  5 mph 1017.9mb 61f
11:00am 1 3 mph 1017.9mb 62f
10:40am 2 5 mph 1017.9mb 62f
10:30am 2 5 mph 1017.9mb 62f
10:20am 3 6 mph 1017.9mb 62f
10:10am 3 7 mph 1017.9mb 67f
10:00am 1 7 mph 1017.6mb 68f
9:40am 2 9 mph 1017.6mb 73f
9:30am 2 11 mph 1017.6mb 73f
9:20am 9 13 mph 1017.6mb 73f
9:10am  -  5 mph 1017.6mb 73f
9:00am 3 7 mph 1017.6mb 72f
8:40am 3 6 mph 1017.9mb 70f
8:30am 2 8 mph 1017.9mb 71f
8:20am 7 10 mph 1018.3mb 70f
8:10am 1 10 mph 1018.3mb 70f
8:00am 2 6 mph 1018.3mb 69f
7:40am 2 7 mph 1018.6mb 68f
7:30am  -  7 mph 1018.6mb 66f
7:20am 2 6 mph 1019mb 64f
7:10am 3 8 mph 1019mb 66f
7:00am 3 7 mph 1019mb 65f
6:40am 5 8 mph 1019.3mb 62f
6:30am 2 6 mph 1019.3mb 60f
6:20am 2 6 mph 1019.3mb 59f
6:10am  -  5 mph 1019.3mb 57f
6:00am 2 7 mph 1019.3mb 58f
5:40am 2 5 mph 1019.3mb 56f
5:30am 3 7 mph 1019.3mb 57f
5:20am 2 7 mph 1019.6mb 56f
5:10am 2 5 mph 1019.6mb 54f
5:00am 1 6 mph 1019.3mb 55f
4:50am 1 5 mph 1019.3mb 54f
4:40am 2 3 mph 1019mb 52f
4:30am 2 5 mph 1019mb 53f
4:20am 1 5 mph 1019mb 56f
4:10am 2 5 mph 1019mb 57f
4:00am 2 6 mph 1019mb 58f
3:50am 2 7 mph 1019mb 59f
3:40am 2 6 mph 1019mb 58f
3:30am 3 6 mph 1019mb 58f
3:20am 1 8 mph 1019mb 59f
3:10am 3 6 mph 1019mb 59f
3:00am 2 24 mph 1019mb -
2:50am 2 8 mph 1019mb 56f
2:40am 3 5 mph 1018.6mb 48f
2:30am 2 3 mph 1018.6mb 47f
2:20am  -  5 mph 1018.6mb 48f
2:10am 2 6 mph 1019mb 47f
2:00am 1 2 mph 1019mb 47f
1:50am  -  1 mph 1019mb 47f
1:40am  -  1 mph 1019.3mb 48f
1:30am  -  5 mph 1019.3mb 48f
1:20am 5 8 mph 1019.3mb 47f
1:10am  -  2 mph 1019.3mb 49f
1:00am 2 3 mph 1019.3mb 48f
12:50am 2
mph
1019.3mb 49f
12:40am 2 3 mph 1019.3mb 48f
12:30am 2 3 mph 1019.3mb 48f
12:20am 2 5 mph 1019.3mb 48f
12:10am 3
mph
1019.6mb 48f
12:00am  -  1 mph 1019.6mb 47f
Sat 05/23 11:50pm 1 6 mph 1019.6mb 48f
11:40pm  -  3 mph 1019.6mb 51f
11:30pm 3 5 mph 1019.3mb 50f
11:20pm 2 9 mph 1019.3mb 49f
11:10pm 7 9 mph 1019mb 48f
11:00pm 9 16 mph 1019.3mb 51f
10:50pm 6 20 mph 1019mb 54f
10:40pm 2
mph
1018.6mb 55f
10:30pm 2 3 mph 1018.6mb 55f
10:20pm 2 3 mph 1018.6mb 56f
10:10pm 2 3 mph 1018.3mb 58f
10:00pm 2 3 mph 1018.6mb 58f
9:50pm 2 3 mph 1018.6mb 58f
9:40pm 2 3 mph 1018.6mb 59f
9:30pm 2 3 mph 1018.6mb 60f
9:20pm 2 5 mph 1018.6mb 62f
9:10pm 2 3 mph 1018.6mb 63f
9:00pm 1 5 mph 1018.6mb 64f
8:50pm 2 5 mph 1018.3mb 65f
8:40pm 2 5 mph 1018.3mb 66f
8:30pm 1 3 mph 1017.9mb 65f
8:20pm 2 3 mph 1017.9mb 66f
8:10pm 1 3 mph 1017.9mb 69f
8:00pm 1 6 mph 1017.9mb 71f
7:50pm 1 7 mph 1017.9mb 72f
7:40pm 3 9 mph 1017.9mb 73f
7:30pm 5 9 mph 1017.6mb 74f
7:20pm 5 8 mph 1017.9mb 74f
7:10pm 6 13 mph 1017.9mb 74f
7:00pm 7 13 mph 1017.9mb 75f
6:50pm 6 13 mph 1017.9mb 74f
6:40pm 9 11 mph 1017.6mb 75f
6:30pm 9 15 mph 1017.6mb 75f
6:20pm 9 14 mph 1017.6mb 75f
6:10pm 6 10 mph 1017.6mb 74f
6:00pm 9 14 mph 1017.9mb 74f
5:50pm 7 15 mph 1017.9mb 75f
5:40pm 9 15 mph 1017.9mb 74f
5:30pm 5 11 mph 1017.9mb 71f
5:20pm 8 20 mph 1017.9mb 74f
5:10pm 10 15 mph 1017.6mb 76f
5:00pm 13 16 mph 1017.6mb 72f
4:50pm 9 15 mph 1017.9mb 73f
4:40pm 10 17 mph 1017.9mb 74f
4:30pm 11 15 mph 1017.9mb 73f
4:20pm 14 17 mph 1018.3mb 73f
4:10pm 10 16 mph 1018.3mb 73f
4:00pm 15 21 mph 1018.3mb 75f
3:50pm 11 23 mph 1018.3mb 73f
3:40pm 15 24 mph 1018.3mb 73f
3:30pm 14 20 mph 1018.6mb 71f
3:20pm 15 20 mph 1018.3mb 71f
3:10pm 13 18 mph 1018.6mb 73f
3:00pm 16 23 mph 1018.6mb 74f
2:50pm 14 22 mph 1018.6mb 73f
2:40pm 17 21 mph 1018.6mb 73f
2:30pm 10 18 mph 1019mb 71f
2:20pm 10 17 mph 1018.6mb 73f
2:10pm 9 15 mph 1019mb 77f
2:00pm 9 17 mph 1019mb 77f
1:50pm 6 14 mph 1019mb 78f
1:40pm 8 23 mph 1019.3mb 78f
1:30pm 11 17 mph 1019.3mb 78f
1:20pm 8 20 mph 1019.3mb 77f
1:10pm 9 16 mph 1019.3mb 78f
1:00pm 7 18 mph 1019.3mb 77f
12:50pm 6 18 mph 1019mb 77f
12:40pm 8 18 mph 1019.3mb 77f
12:30pm 6 16 mph 1019.3mb 76f
12:20pm 10 21 mph 1019.3mb 76f
12:10pm 5 13 mph 1019.3mb 77f
12:00pm 7 22 mph 1019.6mb 76f
11:50am 7 18 mph 1019.6mb 76f
11:40am 8 18 mph 1019.6mb 76f
11:30am 7 18 mph 1019.6mb 75f
11:20am 9 16 mph 1020mb 75f
11:10am 9 18 mph 1019.6mb 75f
11:00am 10 20 mph 1019.6mb 74f
10:50am 9 17 mph 1019.6mb 74f
10:40am 11 21 mph 1019.6mb 74f
10:30am 9 24 mph 1020mb 73f
10:20am 9 23 mph 1020mb 73f
10:10am 7 22 mph 1020mb 73f
10:00am 6 24 mph 1020.3mb 73f
9:50am 8 21 mph 1020.3mb 73f
9:40am 5 17 mph 1020.3mb 73f
9:30am 8 23 mph 1020.3mb 72f
9:20am 11 18 mph 1020.3mb 72f
9:10am 7 17 mph 1020.3mb 72f
9:00am 8 20 mph 1020.3mb 71f
8:50am 6 15 mph 1020.3mb 71f
8:40am 8 23 mph 1020.3mb 71f
8:30am 6 14 mph 1020.3mb 70f
8:20am 6 16 mph 1020.3mb 69f
8:10am 8 14 mph 1020.7mb 69f
8:00am 6 14 mph 1020.7mb 68f
7:50am 3 15 mph 1020.7mb 67f
7:40am 2 16 mph 1020.3mb 67f
7:30am 6 10 mph 1020.7mb 66f
7:20am 6 16 mph 1020.7mb 65f
7:10am 6 13 mph 1020.7mb 65f
7:00am 3 11 mph 1020.7mb 64f
6:50am 5 11 mph 1020.7mb 64f
6:40am 7 16 mph 1020.3mb 63f
6:30am 7 14 mph 1020.3mb 62f
6:20am 7 16 mph 1020.3mb 62f
6:10am 3 10 mph 1020.3mb 61f
6:00am 3 13 mph 1020.3mb 60f
5:50am 6 14 mph 1020.3mb 60f
5:40am 5 14 mph 1020.3mb 59f
5:30am 5 10 mph 1020.3mb 59f
5:20am 5 13 mph 1020mb 58f
5:10am 7 11 mph 1020mb 58f
5:00am 6 13 mph 1020mb 58f
4:50am 6 15 mph 1020mb 58f
4:40am 7 14 mph 1020.3mb 58f
4:30am 7 16 mph 1020mb 58f
4:20am 8 17 mph 1020mb 57f
4:10am 8 18 mph 1020mb 56f
4:00am 7 18 mph 1020mb 55f
3:50am 8 18 mph 1020mb 54f
3:40am 10 20 mph 1020mb 53f
3:30am 7 20 mph 1020mb 53f
3:20am 9 24 mph 1020.3mb 52f
3:10am 8 21 mph 1020.3mb 52f
3:00am 10 18 mph 1020mb 52f
2:50am 7 16 mph 1020mb 52f
2:40am 9 18 mph 1020mb 52f
2:30am 8 18 mph 1020mb 52f
2:20am 10 18 mph 1020mb 52f
2:10am 9 17 mph 1020.3mb 52f
2:00am 9 15 mph 1020.3mb 51f
1:50am 9 22 mph 1020.3mb 52f
1:40am 9 18 mph 1020.3mb 52f
1:30am 9 18 mph 1020.3mb 52f
1:20am 9 17 mph 1020.7mb 52f
1:10am 8 14 mph 1020.7mb 52f
1:00am 7 15 mph 1020.7mb 52f
12:50am 7 13 mph 1020.7mb 52f
12:40am 8 14 mph 1021mb 53f
12:30am 8 14 mph 1021mb 53f
12:20am 6 14 mph 1021mb 53f
12:10am 8 16 mph 1021mb 53f
12:00am 7 13 mph 1021mb 53f
Fri 05/22 11:50pm 7 13 mph 1021mb 53f
11:40pm 5 15 mph 1021.3mb 53f
11:30pm 8 13 mph 1021.3mb 53f
11:20pm 5 9 mph 1021.7mb 51f
11:10pm 2 7 mph 1021.7mb 47f
11:00pm 1 5 mph 1021.7mb 45f
10:50pm  -  3 mph 1021.7mb 44f
10:40pm  -  5 mph 1022mb 44f
10:30pm 1 3 mph 1022mb 44f
10:20pm  -  3 mph 1022mb 44f
10:10pm 2
mph
1022mb 44f
10:00pm 2 6 mph 1022mb 44f
9:50pm 3 6 mph 1022mb 44f
9:40pm 2 3 mph 1022.4mb 44f
9:30pm 2 3 mph 1022.4mb 45f
9:20pm 2 6 mph 1022.4mb 46f
9:10pm 2 8 mph 1022.4mb 46f
9:00pm 6 9 mph 1022.4mb 47f
8:50pm 5 7 mph 1022.4mb 47f
8:40pm 6 9 mph 1022.4mb 47f
8:30pm 6 9 mph 1022.4mb 47f
8:20pm 5 9 mph 1022.4mb 48f
8:10pm 5 9 mph 1022.4mb 49f
8:00pm 3 8 mph 1022.4mb 49f
7:50pm 3 7 mph 1022.7mb 50f
7:40pm 2 8 mph 1022.4mb 51f
7:30pm 5 8 mph 1022.7mb 51f
7:20pm 5 9 mph 1022.7mb 52f
7:10pm 3 8 mph 1022.7mb 53f
7:00pm 6 9 mph 1022.7mb 52f
6:50pm 7 10 mph 1022.7mb 52f
6:40pm 5 9 mph 1022.7mb 52f
6:30pm 5 8 mph 1022.7mb 53f
6:20pm 3 7 mph 1022.7mb 53f
6:10pm 5 8 mph 1022.7mb 53f
6:00pm 3 9 mph 1023mb 52f
5:50pm 5 8 mph 1023mb 52f
5:40pm 2 8 mph 1023.4mb 52f
5:30pm 5 8 mph 1023.4mb 52f
5:20pm 6 9 mph 1023.4mb 51f
5:10pm 6 8 mph 1023.4mb 52f
5:00pm 5 7 mph 1023.4mb 51f
4:50pm 2 6 mph 1023.4mb 51f
4:40pm  -  5 mph 1023.7mb 50f
4:30pm 1 7 mph 1023.7mb 50f
4:20pm  -  5 mph 1023.7mb 49f
4:10pm  -  3 mph 1023.7mb 49f
4:00pm 1 3 mph 1023.7mb 49f
3:50pm 1 5 mph 1023.7mb 49f
3:40pm  -  3 mph 1023.4mb 49f
3:30pm  -  3 mph 1023.4mb 49f
3:20pm  -  3 mph 1023.4mb 49f
3:10pm  -  5 mph 1023.4mb 49f
3:00pm  -  3 mph 1023.4mb 49f
2:50pm  -  3 mph 1023.7mb 49f
2:40pm 1 5 mph 1023.7mb 49f
2:30pm 1 5 mph 1023.7mb 49f
2:20pm  -  3 mph 1023.7mb 49f
2:10pm 2 5 mph 1023.7mb 49f
2:00pm  -  3 mph 1023.7mb 50f
1:50pm 1 6 mph 1023.7mb 49f
1:40pm  -  5 mph 1023.7mb 48f
1:30pm  -  5 mph 1023.7mb 48f
1:20pm 1 5 mph 1023.7mb 48f
1:10pm  -  6 mph 1023.7mb 48f
1:00pm  -  5 mph 1023.7mb 48f
12:50pm  -  3 mph 1023.7mb 47f
12:40pm 1 7 mph 1023.4mb 47f
12:30pm  -  5 mph 1023.4mb 47f
12:20pm  -  2 mph 1023.4mb 48f
12:10pm  -  2 mph 1023.4mb 47f
12:00pm  -  2 mph 1023.4mb 47f
11:50am  -  2 mph 1023.4mb 48f
11:40am  -  2 mph 1023.4mb 48f
11:30am  -  1 mph 1023.4mb 49f
11:20am  -  2 mph 1023.4mb 48f
11:10am  -  2 mph 1023.4mb 48f
11:00am  -  2 mph 1023.4mb 46f
10:50am  -  5 mph 1023.4mb 47f
10:40am  -  2 mph 1023.4mb 46f
10:30am  -  1 mph 1023.4mb 46f
10:20am  -  2 mph 1023.4mb 47f
10:10am 1 5 mph 1023.4mb 47f
10:00am  -  1 mph 1023.4mb 46f
9:50am  -  1 mph 1023.4mb 46f
9:40am  -  3 mph 1023mb 46f
9:30am  -  2 mph 1023mb 45f
9:20am  -  2 mph 1023mb 45f
9:10am  -  2 mph 1023mb 45f
9:00am  -  6 mph 1023mb 46f
8:50am 2 5 mph 1023mb 46f
8:40am 2 8 mph 1023mb 45f
8:30am 3 7 mph 1022.7mb 45f
8:20am 2 6 mph 1022.7mb 45f
8:10am 2 7 mph 1022.7mb 43f
8:00am 1 5 mph 1022.7mb 42f
7:50am 5 7 mph 1022.7mb 42f
7:40am 3 7 mph 1022.7mb 41f
7:30am 3 6 mph 1022.4mb 41f
7:20am 2 5 mph 1022.4mb 40f
7:10am 3 5 mph 1022.4mb 40f
7:00am 2 3 mph 1022.4mb 40f
6:50am 1 3 mph 1022mb 39f
6:40am 2 5 mph 1021.7mb 38f
6:30am  -  mph 1021.7mb 35f
6:20am  -  mph 1021.7mb 34f
6:10am  -  mph 1021.3mb 33f
6:00am  -  mph 1021.3mb 32f
5:50am  -  mph 1021mb 31f
5:40am  -  1 mph 1021mb 31f
5:30am  -  1 mph 1020.7mb 30f
5:20am  -  1 mph 1020.7mb 30f
5:10am  -  1 mph 1020.7mb 30f
5:00am  -  1 mph 1020.7mb 30f
4:50am  -  2 mph 1020.3mb 30f
4:40am  -  1 mph 1020.3mb 31f
4:30am  -  1 mph 1020.3mb 31f
4:20am  -  2 mph 1020.3mb 31f
4:10am  -  2 mph 1020mb 31f
4:00am  -  1 mph 1020mb 32f
3:50am  -  2 mph 1019.6mb 32f
3:40am 1 2 mph 1019.6mb 32f
3:30am 1 2 mph 1019.6mb 33f
3:20am 1
mph
1019.3mb 33f
3:10am  -  1 mph 1019.3mb 33f
3:00am  -  2 mph 1019.3mb 33f
2:50am  -  2 mph 1019mb 34f
2:40am  -  2 mph 1019mb 34f
2:30am 2
mph
1019mb 34f
2:20am  -  2 mph 1018.6mb 35f
2:10am  -  2 mph 1018.6mb 36f
2:00am  -  2 mph 1018.6mb 36f
1:50am  -  7 mph 1018.6mb 36f
1:40am  -  2 mph 1018.3mb 36f
1:30am  -  1 mph 1018.3mb 35f
1:20am  -  3 mph 1018.3mb 35f
1:10am  -  1 mph 1018.3mb 35f
1:00am  -  3 mph 1018.3mb 35f
12:50am 2
mph
1018.3mb 35f
12:40am 2 3 mph 1017.9mb 36f
12:30am 2 3 mph 1017.9mb 36f
12:20am 1 2 mph 1017.9mb 37f
12:10am 1 2 mph 1017.6mb 37f
12:00am 1 2 mph 1017.6mb 37f
Thu 05/21 11:50pm 1 2 mph 1017.6mb 37f
11:40pm  -  2 mph 1017.6mb 37f
11:30pm  -  2 mph 1017.6mb 37f
11:20pm  -  2 mph 1017.6mb 37f
11:10pm  -  2 mph 1017.6mb 38f
11:00pm 1 2 mph 1017.3mb 38f
10:50pm  -  2 mph 1017.3mb 38f
10:40pm 2 3 mph 1017.3mb 38f
10:30pm 1 2 mph 1017.3mb 38f
10:20pm 1 2 mph 1017.3mb 39f
10:10pm 1 2 mph 1017.3mb 39f
10:00pm 1 2 mph 1017.3mb 39f
9:50pm 1 5 mph 1017.3mb 40f
9:40pm 2 5 mph 1017.3mb 40f
9:30pm 2 3 mph 1017.3mb 40f
9:20pm 2 5 mph 1017.3mb 42f
9:10pm 1 6 mph 1016.9mb 43f
9:00pm 2 6 mph 1016.9mb 44f
8:50pm 3 6 mph 1016.6mb 46f
8:40pm 2 8 mph 1016.6mb 46f
8:30pm 2 8 mph 1016.6mb 47f
8:20pm 5 8 mph 1016.6mb 47f
8:10pm 8 10 mph 1016.6mb 48f
8:00pm 6 11 mph 1016.6mb 48f
7:50pm 9 11 mph 1016.3mb 48f
7:40pm 7 10 mph 1016.3mb 49f
7:30pm 8 10 mph 1016.3mb 49f
7:20pm 8 10 mph 1016.3mb 50f
7:10pm 7 9 mph 1015.9mb 50f
7:00pm 7 8 mph 1015.9mb 51f
6:50pm 6 7 mph 1015.9mb 52f
6:40pm 6 7 mph 1015.9mb 52f
6:30pm 5 7 mph 1015.9mb 52f
6:20pm 6 8 mph 1015.9mb 51f
6:10pm 6 7 mph 1015.9mb 52f
6:00pm 6 8 mph 1015.9mb 51f
5:50pm 6 8 mph 1015.9mb 51f
5:40pm 5 6 mph 1015.6mb 51f
5:30pm 3 5 mph 1015.6mb 49f
5:20pm 3 7 mph 1015.2mb 47f
5:10pm 6 7 mph 1015.2mb 47f
5:00pm 5 8 mph 1015.2mb 49f
4:50pm 5 6 mph 1015.2mb 51f
4:40pm 3
mph
1015.2mb 52f
4:30pm 3
mph
1015.2mb 52f
4:20pm 2 3 mph 1015.2mb 50f
4:10pm 2
mph
1015.2mb 51f
4:00pm 1 5 mph 1014.9mb 47f
3:50pm 3 5 mph 1015.2mb 49f
3:40pm 2 5 mph 1014.9mb 48f
3:30pm 3
mph
1015.2mb 50f
3:20pm 2 3 mph 1015.2mb 49f
3:10pm 2 5 mph 1015.2mb 49f
3:00pm 2 6 mph 1015.2mb 48f
2:50pm 3 6 mph 1014.9mb 49f
2:40pm 3 7 mph 1015.2mb 48f
2:30pm 3 7 mph 1014.9mb 48f
2:20pm 5 7 mph 1014.9mb 48f
2:10pm 3 5 mph 1014.9mb 48f
2:00pm  -  2 mph 1014.9mb 49f
1:50pm 1 3 mph 1014.9mb 49f
1:40pm 2
mph
1014.9mb 50f
1:30pm 2 5 mph 1014.9mb 48f
1:20pm 5 6 mph 1014.9mb 47f
1:10pm 3 6 mph 1014.9mb 48f
1:00pm 6
mph
1014.9mb 49f
12:50pm 6 7 mph 1014.9mb 49f
12:40pm 5 6 mph 1014.9mb 49f
12:30pm 6 8 mph 1014.9mb 48f
12:20pm 8 9 mph 1014.9mb 48f
12:10pm 8 10 mph 1014.9mb 48f
12:00pm 10
mph
1014.9mb 47f
11:50am 9 11 mph 1014.6mb 48f
11:40am 10 11 mph 1014.6mb 48f
11:30am 10 13 mph 1014.6mb 48f
11:20am 10 11 mph 1014.2mb 49f
11:10am 9 14 mph 1014.2mb 49f
11:00am 9 14 mph 1014.2mb 49f
10:50am 10 14 mph 1014.2mb 49f
10:40am 9 11 mph 1013.9mb 49f
10:30am 8 11 mph 1013.9mb 49f